KBLU/BLU METAR and TAF weather

Enter ICAO airport designator
Station Type Date Time Source
KBLU METAR 2020/02/26 08:52 UTC NOAA

KBLU 260852Z AUTO 00000KT 10SM CLR 10/M12 A3041 RMK AO2 SLP245 T01001122 55001


Station Type Date Time Source
KBLU Decoded METAR 2020/02/26 08:52 UTC NOAA

BLUE CANYON AIRPORT, CA, United States (KBLU) 39-17N 120-42W 1609M
Feb 26, 2020 - 03:52 AM EST / 2020.02.26 0852 UTC
Wind: Calm:0
Visibility: 10 mile(s):0
Sky conditions: clear
Temperature: 50.0 F (10.0 C)
Dew Point: 10.0 F (-12.2 C)
Relative Humidity: 19%
Pressure (altimeter): 30.41 in. Hg (1029 hPa)
Pressure tendency: 0.00 inches (0.1 hPa) lower than three hours ago
ob: KBLU 260852Z AUTO 00000KT 10SM CLR 10/M12 A3041 RMK AO2 SLP245 T01001122 55001
cycle: 9

Station Type Date Time Source
KBLU TAF UTC NOAA

Error!

Example: see airport list